Air Navigation Services of Czech Republic
Airport: LKPD Updated:  23.09.2017 23:08:15  UTC
 METAR LKPD 23.09. 23:00 ...
METAR LKPD 232300Z 28005KT 6000 -RA BKN006 OVC009 11/10 Q1020 =
 TAF LKPD 23.09. 17:00 ...
TAF LKPD 231700Z 2318/2418 28008KT 6000 RA BKN030      TEMPO 2320/2408 3000 RA BR BKN015      PROB40 TEMPO 2322/2407 28004KT 1000 BR SCT003 OVC007      BECMG 2408/2410 SCT008 BKN020=